Airfield :
LOGIN :

Register | Disclaimer

   EN    FR    IT 

 










Legend :    VFR   Marginal VFR   IFR   Intensive IFR   Very Intensive IFR
Visi :
Ceiling :
>= 8 km
>= 3000ft
5 to 8 km
1000 to 3000 ft
1500m to 5 km
500 to 1000 ft
800 to 1500m
200 to 500 ft
< 800m
< 200 ft
Symbols :   Thunderstorms  Fog  Heavy snow  Heavy precipitations  Wind > 20 kt
SIGMETs :     Misc.  Thunderstorms  Icing  Turbulence  Mountain Waves  Volcanic Ashes






- Airport Elevation : 325 ft
- IATA code : BES


LFRB - Brest

CURRENT METAR :
  • 180330Z AUTO 13004KT 9999 OVC018 03/03 Q1036 BECMG 3000 BR OVC005

EXPIRED METARs :
  • 180300Z AUTO 19002KT 9999 OVC021 03/02 Q1036 BECMG 3000 BR OVC005
  • 180230Z AUTO 13003KT 110V190 9999 OVC021 04/03 Q1036 BECMG 3000 BR OVC005
  • 180200Z AUTO 12009KT 9999 BKN024 03/02 Q1036 BECMG 3000 BR OVC005
  • 180130Z AUTO 10006KT 9999 SCT022 BKN190 BKN220 04/03 Q1036 BECMG 3000 BR OVC005
  • 180100Z AUTO 13005KT CAVOK 02/01 Q1036 TEMPO VV/// BECMG 3000 BR

TAF TAF LFRB
Valid from the 18 at 00:00 until the 19 at 06:00 UTC


172300Z 1800/1906 14005KT 0500 FG VV///
BECMG 1802/1804 3000 BR OVC005
BECMG 1808/1810 9999 NSW BKN010
BECMG 1814/1817 VRB03KT
BECMG 1821/1824 BKN015
PROB30
TEMPO 1900/1906 0500 FG
ATIS : +33 2 98 32 02 71



MET'MAP, your aeronautical weather chart ! - Copyright ORBIFLY December 2007 - Disclaimer

ORBIFLY MET'MAP TEAM :

Programming & Development : Alexandra Zaïnal
Concept & original design : Baudouin d'Aumeries
Assistance for programming : Marc-Olivier Méhu
Technical & hardware support : Manuel Goepfert

Contact : metmap@orbifly.com




SOURCES & CREDITS :

   NOAA